Time;durP1;ratioP1;P1;durP2;ratioP2;P2;SDS_P1;SDS_P2;PMS_P1;PMS_P2;Temp;Humidity;BMP_temperature;BMP_pressure;BME280_temperature;BME280_humidity;BME280_pressure;Samples;Min_cycle;Max_cycle;Signal;HPM_P1;HPM_P2
2022/02/09 00:02:18;;;;;;;5.45;2.65;;;;;;;4.70;51.81;97623.38;5068531;28;20072;-79
2022/02/09 00:04:56;;;;;;;5.13;2.30;;;;;;;4.72;51.69;97626.63;5068197;28;20144;-78
2022/02/09 00:07:31;;;;;;;5.60;2.28;;;;;;;4.76;51.70;97618.03;5067468;28;20061;-78
2022/02/09 00:09:58;;;;;;;6.18;2.28;;;;;;;4.77;52.42;97628.56;5067932;28;20055;-79
2022/02/09 00:12:30;;;;;;;3.80;2.08;;;;;;;4.79;52.33;97615.63;5067795;28;20434;-79
2022/02/09 00:15:10;;;;;;;5.82;1.92;;;;;;;4.81;52.08;97618.91;5052643;28;20045;-79
2022/02/09 00:17:44;;;;;;;9.90;2.50;;;;;;;4.81;51.46;97632.41;5047983;28;20049;-79
2022/02/09 00:20:38;;;;;;;4.78;2.17;;;;;;;4.83;50.90;97637.56;5047618;28;20545;-79
2022/02/09 00:40:00;;;;;;;4.07;1.90;;;;;;;4.95;49.83;97639.06;5045203;28;20049;-79
2022/02/09 00:42:45;;;;;;;3.22;1.75;;;;;;;4.97;48.43;97647.75;5047310;28;20053;-79
2022/02/09 01:41:09;;;;;;;6.25;1.60;;;;;;;4.85;50.33;97638.09;5025041;28;20068;-78
2022/02/09 01:57:21;;;;;;;4.90;1.60;;;;;;;4.56;51.82;97638.25;5027037;28;20136;-78
2022/02/09 01:59:49;;;;;;;4.00;1.60;;;;;;;4.53;52.29;97633.34;5027823;28;20057;-78
2022/02/09 02:02:16;;;;;;;2.70;1.50;;;;;;;4.56;52.56;97630.19;5046078;28;20048;-77
2022/02/09 02:04:45;;;;;;;3.33;1.30;;;;;;;4.63;52.98;97630.00;5070831;28;20415;-79
2022/02/09 02:07:21;;;;;;;3.95;1.85;;;;;;;4.67;52.63;97621.16;5070140;28;20044;-78
2022/02/09 02:09:48;;;;;;;3.22;1.40;;;;;;;4.62;52.67;97620.28;5070370;28;20052;-79
2022/02/09 02:12:19;;;;;;;2.55;1.25;;;;;;;4.47;53.03;97623.56;5069896;28;20782;-79
2022/02/09 02:14:50;;;;;;;2.22;1.20;;;;;;;4.38;53.71;97620.47;5056697;28;20399;-79
2022/02/09 02:17:24;;;;;;;2.78;1.20;;;;;;;4.36;53.96;97614.50;5049846;28;20052;-78
2022/02/09 02:19:59;;;;;;;3.45;1.30;;;;;;;4.42;54.10;97613.50;5050540;28;20074;-78
2022/02/09 02:22:43;;;;;;;5.32;1.30;;;;;;;4.44;54.23;97611.41;5049795;28;20053;-78
2022/02/09 02:28:30;;;;;;;2.60;1.30;;;;;;;4.39;54.20;97605.94;5045875;28;20079;-79
2022/02/09 02:59:19;;;;;;;2.50;1.15;;;;;;;4.36;55.78;97579.44;5064097;28;20083;-78
2022/02/09 03:10:34;;;;;;;3.20;1.40;;;;;;;4.51;54.81;97567.25;5063222;28;20060;-79
2022/02/09 03:13:03;;;;;;;2.47;1.35;;;;;;;4.40;55.44;97585.97;5063755;28;20048;-79
2022/02/09 03:15:39;;;;;;;2.28;1.05;;;;;;;4.44;55.95;97573.63;5062647;28;20049;-78
2022/02/09 03:18:41;;;;;;;3.15;1.63;;;;;;;4.44;55.54;97580.91;5063174;28;20051;-80
2022/02/09 03:21:19;;;;;;;2.00;1.13;;;;;;;4.45;55.56;97577.97;5063412;28;20056;-79
2022/02/09 03:23:50;;;;;;;2.38;1.25;;;;;;;4.54;55.79;97574.81;5063620;28;20519;-78
2022/02/09 03:26:45;;;;;;;3.78;1.40;;;;;;;4.55;55.74;97571.09;5063155;28;20059;-79
2022/02/09 03:43:03;;;;;;;2.40;1.38;;;;;;;4.54;56.15;97561.34;5060633;28;20051;-80
2022/02/09 03:45:52;;;;;;;3.50;1.40;;;;;;;4.45;55.77;97561.78;5062451;28;20480;-79
2022/02/09 03:54:01;;;;;;;2.85;1.58;;;;;;;4.55;56.54;97549.50;5041455;28;20202;-78
2022/02/09 03:56:41;;;;;;;3.83;1.30;;;;;;;4.53;56.33;97547.03;5062695;28;20073;-79
2022/02/09 03:59:07;;;;;;;2.03;1.15;;;;;;;4.55;56.81;97546.81;5048387;28;20629;-78
2022/02/09 04:01:37;;;;;;;3.22;1.52;;;;;;;4.58;57.13;97543.59;5049686;28;20585;-79
2022/02/09 04:04:05;;;;;;;2.22;1.23;;;;;;;4.62;57.29;97539.34;5048973;28;20056;-78
2022/02/09 04:06:34;;;;;;;2.70;1.33;;;;;;;4.64;57.05;97537.19;5049275;28;20053;-78
2022/02/09 04:09:07;;;;;;;2.83;1.38;;;;;;;4.65;56.82;97531.56;5049206;28;20082;-80
2022/02/09 04:11:39;;;;;;;3.93;1.33;;;;;;;4.67;56.75;97520.50;5049106;28;20057;-79
2022/02/09 04:14:11;;;;;;;3.40;1.48;;;;;;;4.70;57.01;97520.03;5068299;28;20648;-78
2022/02/09 04:16:50;;;;;;;1.58;0.93;;;;;;;4.68;56.40;97520.25;5069123;28;20040;-80
2022/02/09 04:19:26;;;;;;;2.88;1.42;;;;;;;4.66;56.79;97519.69;5068945;28;20571;-79
2022/02/09 04:38:33;;;;;;;3.35;1.40;;;;;;;4.62;56.29;97506.97;5068215;28;20505;-80
2022/02/09 04:44:08;;;;;;;4.10;1.20;;;;;;;4.57;56.92;97510.41;4971965;28;20061;-79
2022/02/09 04:52:30;;;;;;;2.65;1.50;;;;;;;4.50;57.25;97514.38;5028228;28;20061;-80
2022/02/09 04:55:07;;;;;;;2.50;1.42;;;;;;;4.52;57.15;97523.00;5028579;28;20054;-78
2022/02/09 04:57:41;;;;;;;5.68;1.50;;;;;;;4.56;57.90;97516.88;5027970;28;20050;-78
2022/02/09 05:00:21;;;;;;;3.53;1.30;;;;;;;4.60;58.27;97512.63;5028153;28;20069;-80
2022/02/09 05:20:03;;;;;;;3.03;1.70;;;;;;;4.37;59.42;97492.09;5067840;28;20063;-80
2022/02/09 05:25:12;;;;;;;4.57;1.77;;;;;;;4.33;59.41;97492.81;5068030;28;20058;-79
2022/02/09 05:27:50;;;;;;;3.53;1.60;;;;;;;4.39;59.29;97502.63;5067413;28;20127;-79
2022/02/09 05:30:18;;;;;;;3.65;1.58;;;;;;;4.37;59.19;97500.16;5067295;28;20040;-80
2022/02/09 05:32:47;;;;;;;5.57;2.42;;;;;;;4.32;59.74;97499.28;5068212;28;20052;-79
2022/02/09 05:35:14;;;;;;;3.58;1.85;;;;;;;4.25;59.81;97501.38;5067576;28;20083;-78
2022/02/09 05:37:41;;;;;;;4.10;1.67;;;;;;;4.21;60.08;97498.34;5067515;28;20048;-80
2022/02/09 05:40:09;;;;;;;8.15;3.15;;;;;;;4.22;60.48;97491.88;5067155;28;20054;-78
2022/02/09 05:42:35;;;;;;;5.45;1.95;;;;;;;4.19;60.26;97497.78;5058302;28;20057;-78
2022/02/09 05:45:06;;;;;;;6.50;3.58;;;;;;;4.19;60.39;97493.22;5047387;28;20837;-79
2022/02/09 05:50:27;;;;;;;6.75;1.77;;;;;;;4.11;60.31;97487.41;5047046;28;20057;-80
2022/02/09 05:53:07;;;;;;;2.60;1.45;;;;;;;4.11;60.70;97495.50;5047458;28;20089;-79
2022/02/09 05:55:45;;;;;;;2.97;1.60;;;;;;;4.08;60.86;97490.63;5047443;28;20494;-79
2022/02/09 05:58:21;;;;;;;4.03;1.70;;;;;;;4.02;61.00;97480.81;5046951;28;20559;-79
2022/02/09 06:00:48;;;;;;;3.13;1.45;;;;;;;3.97;60.73;97478.88;5046755;28;20048;-79
2022/02/09 06:03:16;;;;;;;4.43;1.50;;;;;;;3.92;60.68;97485.03;5046970;28;20060;-79
2022/02/09 06:05:43;;;;;;;1.95;1.15;;;;;;;3.85;60.79;97495.13;5046874;28;20053;-79
2022/02/09 06:08:10;;;;;;;2.92;1.40;;;;;;;3.78;60.75;97488.31;5046544;28;20131;-79
2022/02/09 06:10:39;;;;;;;4.25;1.83;;;;;;;3.74;60.97;97493.34;5047035;28;20059;-80
2022/02/09 06:13:19;;;;;;;2.53;1.25;;;;;;;3.70;61.08;97488.69;5057590;28;20523;-78
2022/02/09 06:21:12;;;;;;;3.05;1.40;;;;;;;3.51;62.23;97496.22;5066428;28;20105;-77
2022/02/09 06:23:39;;;;;;;3.75;1.73;;;;;;;3.45;62.26;97502.59;5066522;28;20143;-77
2022/02/09 06:26:06;;;;;;;5.78;1.50;;;;;;;3.38;62.77;97498.16;5066239;28;20052;-78
2022/02/09 06:28:32;;;;;;;2.95;1.52;;;;;;;3.31;62.68;97505.59;5066740;28;20053;-79
2022/02/09 06:30:59;;;;;;;3.55;1.55;;;;;;;3.28;62.88;97498.00;5066921;28;20206;-78
2022/02/09 06:33:27;;;;;;;4.05;2.15;;;;;;;3.27;63.36;97504.44;5066498;28;20052;-78
2022/02/09 06:35:56;;;;;;;9.20;1.58;;;;;;;3.23;63.05;97511.38;5066854;28;20071;-78
2022/02/09 06:38:22;;;;;;;4.80;1.60;;;;;;;3.13;63.11;97508.50;5066322;28;20127;-77
2022/02/09 06:40:53;;;;;;;4.55;1.50;;;;;;;3.03;63.36;97511.03;5066809;28;20055;-77
2022/02/09 06:43:19;;;;;;;6.53;2.00;;;;;;;2.98;63.84;97511.75;5050586;28;20055;-77
2022/02/09 06:45:46;;;;;;;6.75;2.20;;;;;;;2.94;63.64;97507.09;5046378;28;20048;-77
2022/02/09 06:48:13;;;;;;;4.63;1.77;;;;;;;2.89;64.19;97505.09;5046196;28;20053;-78
2022/02/09 06:50:45;;;;;;;6.32;1.90;;;;;;;2.87;64.26;97510.75;5046919;28;20049;-78
2022/02/09 06:53:26;;;;;;;5.15;1.83;;;;;;;2.88;64.26;97511.56;5046897;28;20068;-78
2022/02/09 06:55:56;;;;;;;3.47;1.63;;;;;;;2.86;65.02;97502.88;5046493;28;20056;-78
2022/02/09 06:58:43;;;;;;;6.85;1.85;;;;;;;2.81;64.87;97500.91;5046379;28;20501;-78
2022/02/09 07:01:10;;;;;;;8.43;1.50;;;;;;;2.78;65.13;97498.72;5046475;28;20138;-78
2022/02/09 07:03:36;;;;;;;2.58;1.45;;;;;;;2.77;65.12;97496.28;5046759;28;20049;-79
2022/02/09 07:06:06;;;;;;;4.30;1.27;;;;;;;2.80;65.46;97495.78;5046156;28;20852;-79
2022/02/09 07:08:32;;;;;;;4.90;1.38;;;;;;;2.84;65.67;97496.94;5046485;28;20131;-79
2022/02/09 07:10:59;;;;;;;1.50;1.02;;;;;;;2.90;65.03;97495.97;5046685;28;20045;-79
2022/02/09 07:13:26;;;;;;;2.83;1.30;;;;;;;2.92;65.00;97499.22;5058853;28;20102;-79
2022/02/09 07:15:54;;;;;;;3.30;1.50;;;;;;;2.97;64.73;97498.50;5065217;28;20048;-79
2022/02/09 07:18:24;;;;;;;3.38;1.73;;;;;;;3.04;64.16;97497.31;5063888;28;20052;-77
2022/02/09 07:20:57;;;;;;;4.72;1.88;;;;;;;3.13;64.04;97495.03;5065110;28;20493;-79
2022/02/09 07:23:30;;;;;;;3.42;1.67;;;;;;;3.20;63.94;97495.72;5065979;28;20048;-79
2022/02/09 07:26:05;;;;;;;5.25;1.50;;;;;;;3.26;63.62;97494.75;5066304;28;20063;-79
2022/02/09 07:28:31;;;;;;;4.40;1.65;;;;;;;3.31;63.70;97489.44;5066336;28;20075;-78
2022/02/09 07:30:58;;;;;;;2.80;1.50;;;;;;;3.36;63.14;97492.22;5066304;28;20085;-80
2022/02/09 07:33:26;;;;;;;4.68;1.33;;;;;;;3.38;63.39;97487.41;5068153;28;20056;-78
2022/02/09 07:35:52;;;;;;;2.88;1.40;;;;;;;3.35;63.68;97487.09;5069938;28;20049;-79
2022/02/09 07:38:19;;;;;;;9.75;2.22;;;;;;;3.27;64.26;97490.97;5069115;28;20056;-78
2022/02/09 07:40:47;;;;;;;2.95;1.38;;;;;;;3.20;64.49;97492.22;5070214;28;20048;-79
2022/02/09 07:43:19;;;;;;;5.50;1.80;;;;;;;3.12;65.26;97493.41;5067308;28;20057;-78
2022/02/09 07:46:04;;;;;;;4.30;1.60;;;;;;;3.04;65.48;97491.13;5069878;28;20406;-78
2022/02/09 07:48:51;;;;;;;3.85;1.73;;;;;;;3.01;65.99;97480.84;5069151;28;20048;-79
2022/02/09 07:51:38;;;;;;;2.75;1.35;;;;;;;2.99;66.58;97477.59;5069527;28;20050;-78
2022/02/09 07:54:05;;;;;;;2.72;1.30;;;;;;;2.94;66.36;97474.78;5069543;28;20095;-78
2022/02/09 07:56:35;;;;;;;2.38;1.27;;;;;;;2.88;66.65;97472.00;5069553;28;20052;-79
2022/02/09 07:59:03;;;;;;;2.55;1.33;;;;;;;2.91;66.95;97475.25;5069641;28;20530;-78
2022/02/09 08:01:30;;;;;;;2.92;1.50;;;;;;;2.91;66.72;97472.56;5069222;28;20054;-78
2022/02/09 08:03:57;;;;;;;3.65;1.45;;;;;;;2.87;67.08;97473.06;5069571;28;20044;-78
2022/02/09 08:06:24;;;;;;;2.15;1.27;;;;;;;2.97;66.90;97471.59;5068862;28;20048;-78
2022/02/09 08:08:52;;;;;;;2.42;1.40;;;;;;;3.03;66.71;97478.75;5068713;28;20141;-78
2022/02/09 08:11:23;;;;;;;2.83;1.38;;;;;;;3.08;66.56;97476.09;5068482;28;20132;-78
2022/02/09 08:27:44;;;;;;;5.60;1.60;;;;;;;4.40;63.12;97472.72;5048912;28;20056;-80
2022/02/09 08:30:32;;;;;;;5.43;1.50;;;;;;;4.45;63.62;97470.09;5048983;28;20134;-78
2022/02/09 08:33:06;;;;;;;2.78;1.67;;;;;;;4.44;63.79;97473.84;5048638;28;20131;-78
2022/02/09 08:35:33;;;;;;;3.90;1.40;;;;;;;4.42;63.92;97475.16;5048476;28;20057;-78
2022/02/09 08:38:00;;;;;;;4.72;1.75;;;;;;;4.34;64.51;97479.13;5048647;28;20045;-78
2022/02/09 08:40:28;;;;;;;4.00;1.95;;;;;;;4.45;64.67;97470.09;5048348;28;20124;-78
2022/02/09 08:42:55;;;;;;;8.07;1.95;;;;;;;4.73;63.91;97470.94;5058486;28;20139;-79
2022/02/09 08:45:23;;;;;;;8.00;1.92;;;;;;;5.24;62.99;97469.56;5067405;28;20484;-78
2022/02/09 08:47:49;;;;;;;5.20;1.67;;;;;;;5.64;61.44;97470.97;5069042;28;20048;-78
2022/02/09 08:50:16;;;;;;;5.50;1.60;;;;;;;5.92;59.84;97472.56;5068234;28;20095;-78
2022/02/09 08:52:43;;;;;;;4.97;1.50;;;;;;;5.93;60.27;97468.78;5068615;28;20056;-78
2022/02/09 08:55:10;;;;;;;5.72;1.88;;;;;;;6.14;59.18;97464.28;5068187;28;20071;-78
2022/02/09 08:57:36;;;;;;;7.07;1.60;;;;;;;6.25;59.12;97460.56;5068171;28;20510;-78
2022/02/09 09:00:15;;;;;;;3.50;1.63;;;;;;;6.22;59.44;97465.69;5068116;28;20055;-78
2022/02/09 09:02:47;;;;;;;5.38;1.63;;;;;;;6.06;59.77;97461.28;5068484;28;20083;-80
2022/02/09 09:05:21;;;;;;;3.90;1.70;;;;;;;6.23;60.41;97467.31;5068225;28;20051;-78
2022/02/09 09:07:53;;;;;;;6.22;1.80;;;;;;;6.39;60.21;97471.72;5067869;28;20044;-78
2022/02/09 09:10:27;;;;;;;5.68;1.35;;;;;;;6.13;60.72;97467.28;5067908;28;20044;-77
2022/02/09 10:02:41;;;;;;;5.10;1.85;;;;;;;11.02;50.73;97459.13;5066838;28;20131;-79
2022/02/09 10:05:38;;;;;;;4.30;2.10;;;;;;;11.69;49.18;97467.91;5066963;28;20045;-77
2022/02/09 10:33:14;;;;;;;6.72;2.13;;;;;;;12.11;48.67;97455.22;5046804;28;20622;-77
2022/02/09 10:35:47;;;;;;;5.40;2.30;;;;;;;12.42;48.62;97447.25;5046957;28;20111;-78
2022/02/09 10:38:24;;;;;;;7.30;2.38;;;;;;;12.43;47.29;97454.38;5046818;28;20153;-78
2022/02/09 10:40:54;;;;;;;10.60;2.40;;;;;;;12.70;46.77;97443.44;5046977;28;20052;-79
2022/02/09 10:43:26;;;;;;;7.03;2.38;;;;;;;13.01;46.50;97437.31;5059410;28;20052;-79
2022/02/09 10:46:08;;;;;;;2.50;1.40;;;;;;;13.21;45.83;97438.78;5066946;28;20052;-78
2022/02/09 10:48:39;;;;;;;7.43;2.05;;;;;;;13.25;46.57;97429.66;5066187;28;20286;-78
2022/02/09 10:51:23;;;;;;;5.47;1.65;;;;;;;13.26;45.66;97427.75;5066278;28;20135;-77
2022/02/09 10:54:08;;;;;;;5.80;1.63;;;;;;;13.55;46.04;97427.31;5066951;28;20125;-78
2022/02/09 10:56:39;;;;;;;6.10;2.22;;;;;;;14.00;44.37;97419.09;5046648;28;20413;-76
2022/02/09 10:59:07;;;;;;;4.18;1.65;;;;;;;13.89;44.17;97418.56;5046369;28;20057;-78
2022/02/09 11:01:35;;;;;;;7.38;2.28;;;;;;;13.67;44.09;97413.88;5046931;28;20071;-77
2022/02/09 11:04:02;;;;;;;3.42;1.60;;;;;;;13.36;44.62;97416.56;5046980;28;20056;-78
2022/02/09 11:06:32;;;;;;;8.13;2.00;;;;;;;13.28;45.89;97404.44;5066650;28;20051;-79
2022/02/09 11:08:59;;;;;;;5.10;2.03;;;;;;;13.31;45.94;97403.81;5069453;28;20586;-77
2022/02/09 11:11:28;;;;;;;5.32;2.35;;;;;;;13.25;46.17;97407.78;5070079;28;20052;-78
2022/02/09 11:13:56;;;;;;;9.20;2.47;;;;;;;12.86;47.24;97402.09;5048651;28;20044;-77
2022/02/09 11:16:23;;;;;;;4.85;1.60;;;;;;;12.56;47.37;97398.91;5050091;28;20504;-78
2022/02/09 11:18:54;;;;;;;4.63;2.15;;;;;;;12.20;48.03;97394.16;5050502;28;20049;-77
2022/02/09 11:21:26;;;;;;;8.05;2.95;;;;;;;11.86;48.81;97393.72;5050303;28;20135;-78
2022/02/09 11:23:56;;;;;;;7.80;2.30;;;;;;;11.60;49.64;97390.59;5050742;28;20052;-78
2022/02/09 11:26:38;;;;;;;5.45;2.05;;;;;;;11.62;50.10;97386.44;5050181;28;20056;-77
2022/02/09 11:29:42;;;;;;;7.60;2.42;;;;;;;11.72;50.91;97380.81;5049773;28;20048;-77
2022/02/09 11:32:14;;;;;;;6.35;2.17;;;;;;;11.91;50.29;97371.78;5049542;28;20073;-78
2022/02/09 11:35:13;;;;;;;10.32;2.28;;;;;;;11.89;49.53;97374.00;5050145;28;20052;-77
2022/02/09 11:37:53;;;;;;;7.22;2.22;;;;;;;11.87;49.60;97370.78;5049994;28;20041;-78
2022/02/09 11:40:35;;;;;;;5.40;2.50;;;;;;;11.75;49.52;97374.78;5049990;28;20059;-78
2022/02/09 11:43:36;;;;;;;7.40;2.35;;;;;;;11.61;50.03;97368.47;5060593;28;20124;-76
2022/02/09 11:46:22;;;;;;;4.38;2.08;;;;;;;11.67;49.95;97364.53;5068152;28;20056;-77
2022/02/09 12:09:34;;;;;;;5.22;2.20;;;;;;;12.12;47.34;97345.72;5067962;28;20086;-77
2022/02/09 12:12:05;;;;;;;3.90;2.10;;;;;;;12.21;47.34;97338.41;5065128;28;20052;-77
2022/02/09 12:14:55;;;;;;;5.55;1.98;;;;;;;12.15;48.16;97344.28;5049476;28;20049;-78
2022/02/09 12:17:33;;;;;;;4.72;1.98;;;;;;;12.37;46.97;97340.84;5049014;28;20053;-78
2022/02/09 12:20:16;;;;;;;8.00;1.98;;;;;;;12.63;47.11;97335.63;5048887;28;20045;-80
2022/02/09 12:22:47;;;;;;;15.80;2.47;;;;;;;12.92;46.11;97335.25;5049217;28;20152;-78
2022/02/09 12:25:14;;;;;;;6.05;1.90;;;;;;;13.18;44.58;97333.53;5048752;28;20053;-76
2022/02/09 12:27:47;;;;;;;3.95;1.60;;;;;;;13.25;42.71;97327.66;5048779;28;20462;-79
2022/02/09 12:30:14;;;;;;;4.60;1.58;;;;;;;13.34;42.06;97324.97;5049012;28;20048;-78
2022/02/09 12:32:42;;;;;;;4.05;1.50;;;;;;;13.32;41.31;97317.91;5049031;28;20531;-77
2022/02/09 12:35:13;;;;;;;2.22;1.02;;;;;;;13.20;41.91;97314.06;5048301;28;20056;-78
2022/02/09 12:37:42;;;;;;;9.23;1.40;;;;;;;13.33;42.92;97318.72;5048246;28;20053;-78
2022/02/09 12:40:11;;;;;;;2.03;1.20;;;;;;;13.42;41.20;97316.03;5048475;28;20045;-77
2022/02/09 12:42:39;;;;;;;2.83;1.20;;;;;;;13.69;41.81;97304.91;5056118;28;20044;-78
2022/02/09 12:45:08;;;;;;;2.83;1.35;;;;;;;14.10;41.31;97309.28;5068729;28;20060;-78
2022/02/09 12:47:37;;;;;;;6.60;1.90;;;;;;;14.38;40.72;97304.34;5068471;28;20135;-79
2022/02/09 12:50:07;;;;;;;3.90;1.50;;;;;;;14.62;39.45;97312.16;5068615;28;20135;-78
2022/02/09 12:52:36;;;;;;;8.60;2.20;;;;;;;14.86;39.47;97308.94;5068832;28;20044;-78
2022/02/09 12:55:07;;;;;;;7.90;1.38;;;;;;;14.95;38.59;97306.19;5068298;28;20041;-77
2022/02/09 12:57:34;;;;;;;2.95;1.45;;;;;;;14.94;37.38;97301.84;5068430;28;20059;-78
2022/02/09 13:00:01;;;;;;;2.78;1.60;;;;;;;14.86;38.07;97303.44;5068827;28;20048;-78
2022/02/09 13:02:41;;;;;;;3.35;1.20;;;;;;;14.47;38.29;97298.88;5068304;28;20052;-78
2022/02/09 13:05:08;;;;;;;4.70;1.33;;;;;;;14.42;39.34;97293.56;5068085;28;20055;-78
2022/02/09 13:07:35;;;;;;;2.08;1.17;;;;;;;14.36;39.05;97290.97;5068329;28;20083;-78
2022/02/09 13:10:03;;;;;;;3.25;1.38;;;;;;;14.37;38.69;97291.78;5068006;28;20392;-75
2022/02/09 13:12:32;;;;;;;4.50;1.30;;;;;;;14.30;39.30;97297.72;5066286;28;20049;-78
2022/02/09 13:15:12;;;;;;;3.75;1.50;;;;;;;14.22;39.57;97289.47;5068254;28;20126;-79
2022/02/09 13:18:08;;;;;;;3.22;1.35;;;;;;;13.91;39.64;97289.53;5067735;28;20049;-79
2022/02/09 13:52:05;;;;;;;2.60;1.10;;;;;;;12.17;44.96;97271.91;5047641;28;20055;-79
2022/02/09 14:11:11;;;;;;;4.28;1.45;;;;;;;12.02;44.66;97248.44;5047248;28;20060;-81
2022/02/09 14:14:01;;;;;;;3.20;1.23;;;;;;;12.01;45.60;97252.31;5047076;28;20080;-81
2022/02/09 14:16:40;;;;;;;2.85;1.13;;;;;;;12.18;44.55;97251.66;5046218;28;20076;-80
2022/02/09 14:19:21;;;;;;;4.78;1.48;;;;;;;12.40;44.18;97242.72;5046779;28;20049;-81
2022/02/09 14:54:49;;;;;;;4.57;1.42;;;;;;;15.40;36.84;97225.13;5048784;28;20121;-81
2022/02/09 14:57:20;;;;;;;3.30;1.10;;;;;;;15.37;37.56;97214.78;5064892;28;20052;-79
2022/02/09 14:59:53;;;;;;;4.97;1.67;;;;;;;15.24;37.72;97214.97;5063261;28;20135;-79
2022/02/09 15:02:35;;;;;;;2.08;1.10;;;;;;;14.88;37.86;97217.00;5045014;28;20494;-78
2022/02/09 15:07:49;;;;;;;4.07;1.40;;;;;;;14.05;39.05;97213.56;5046075;28;20048;-77
2022/02/09 15:10:20;;;;;;;5.85;1.40;;;;;;;13.80;40.18;97204.16;5044902;28;20053;-77
2022/02/09 15:12:57;;;;;;;4.53;1.50;;;;;;;13.62;40.98;97206.00;5046098;28;20056;-78
2022/02/09 15:15:32;;;;;;;5.18;1.77;;;;;;;13.26;41.71;97208.94;5044788;28;20075;-78
2022/02/09 15:20:51;;;;;;;7.68;1.65;;;;;;;12.86;42.81;97205.28;5044398;28;20064;-78
2022/02/09 15:23:21;;;;;;;3.20;1.30;;;;;;;12.69;42.55;97201.34;5039240;28;20132;-79
2022/02/09 15:25:47;;;;;;;5.30;1.50;;;;;;;12.56;43.26;97199.44;5026339;28;20055;-78
2022/02/09 15:28:14;;;;;;;4.68;1.40;;;;;;;12.45;43.91;97203.53;5025793;28;20045;-78
2022/02/09 15:30:48;;;;;;;3.25;1.20;;;;;;;12.29;44.71;97203.09;5024387;28;20420;-78
2022/02/09 15:33:22;;;;;;;5.75;1.67;;;;;;;12.14;44.90;97196.06;5025363;28;20060;-78
2022/02/09 15:35:54;;;;;;;6.38;1.75;;;;;;;12.01;45.56;97194.19;5025965;28;20610;-78
2022/02/09 15:38:25;;;;;;;8.45;2.42;;;;;;;11.89;46.32;97194.69;5025653;28;20041;-79
2022/02/09 15:40:59;;;;;;;9.75;2.85;;;;;;;11.69;46.37;97189.63;5025718;28;20459;-80
2022/02/09 15:43:56;;;;;;;13.80;1.90;;;;;;;11.54;46.71;97185.31;5056232;28;20102;-77
2022/02/09 15:57:59;;;;;;;17.63;2.00;;;;;;;10.82;49.04;97172.19;5069437;28;20056;-77
2022/02/09 16:06:11;;;;;;;13.10;2.72;;;;;;;10.41;50.30;97177.53;5069937;28;20093;-78
2022/02/09 16:09:11;;;;;;;16.70;2.13;;;;;;;10.30;50.58;97170.63;5068509;28;20094;-78
2022/02/09 16:22:52;;;;;;;16.08;3.03;;;;;;;9.51;53.48;97176.56;4971751;28;20074;-79
2022/02/09 16:25:27;;;;;;;17.27;2.67;;;;;;;9.36;53.89;97168.59;5028239;28;20057;-79
2022/02/09 16:33:35;;;;;;;10.80;2.55;;;;;;;8.97;55.29;97169.56;5028214;28;20090;-79
2022/02/09 16:44:16;;;;;;;16.85;5.53;;;;;;;8.75;55.85;97171.97;5027646;28;20073;-81
2022/02/09 16:44:37;;;;;;;16.65;4.95;;;;;;;8.47;57.18;97179.81;5067921;28;20051;-80
2022/02/09 16:47:07;;;;;;;21.85;6.53;;;;;;;8.39;57.83;97176.88;5067999;28;20106;-82
2022/02/09 16:49:42;;;;;;;20.60;5.82;;;;;;;8.28;58.08;97170.69;5055171;28;20480;-81
2022/02/09 16:52:15;;;;;;;30.90;5.82;;;;;;;8.21;58.52;97170.22;5048135;28;20048;-81
2022/02/09 16:54:50;;;;;;;24.50;5.53;;;;;;;8.11;58.90;97166.47;5049558;28;20721;-80
2022/02/09 17:08:38;;;;;;;27.70;6.80;;;;;;;7.64;60.60;97171.66;5048698;28;20091;-79
2022/02/09 17:19:18;;;;;;;18.38;6.38;;;;;;;7.23;62.49;97171.81;5049359;28;20097;-80
2022/02/09 17:21:44;;;;;;;21.95;5.65;;;;;;;7.19;62.54;97159.91;5049366;28;20049;-80
2022/02/09 17:24:13;;;;;;;28.08;5.93;;;;;;;7.11;62.74;97158.59;5047221;28;20508;-81
2022/02/09 17:26:41;;;;;;;12.55;5.18;;;;;;;7.00;63.61;97163.22;5048446;28;20060;-81
2022/02/09 17:29:07;;;;;;;14.73;5.63;;;;;;;6.90;64.08;97162.44;5048254;28;20049;-80
2022/02/09 17:31:43;;;;;;;18.63;5.63;;;;;;;6.84;63.88;97158.94;5049160;28;20057;-81
2022/02/09 17:34:42;;;;;;;25.85;6.32;;;;;;;6.76;64.38;97167.59;5047531;28;20052;-81
2022/02/09 17:37:27;;;;;;;19.35;6.25;;;;;;;6.70;64.61;97157.88;5046410;28;20124;-80
2022/02/09 17:53:47;;;;;;;31.13;7.20;;;;;;;6.27;65.70;97173.59;5047190;28;20052;-80
2022/02/09 17:56:17;;;;;;;19.95;6.00;;;;;;;6.22;65.88;97168.19;5047520;28;20140;-79
2022/02/09 17:58:48;;;;;;;17.85;5.10;;;;;;;6.18;66.15;97167.09;5046477;28;20060;-80
2022/02/09 18:01:16;;;;;;;16.08;6.30;;;;;;;6.13;66.14;97164.41;5047257;28;20087;-80
2022/02/09 18:03:42;;;;;;;22.73;9.45;;;;;;;6.10;66.17;97171.13;5046186;28;20075;-80
2022/02/09 18:06:16;;;;;;;28.33;11.02;;;;;;;6.07;66.64;97165.47;5047439;28;20053;-80
2022/02/09 18:08:50;;;;;;;29.85;11.43;;;;;;;5.98;66.81;97168.69;5046145;28;20049;-80
2022/02/09 18:11:29;;;;;;;24.95;9.82;;;;;;;5.90;67.48;97166.50;5046231;28;20140;-79
2022/02/09 18:25:18;;;;;;;16.38;7.45;;;;;;;5.66;68.01;97143.75;5045658;28;20091;-79
2022/02/09 18:28:30;;;;;;;25.73;8.73;;;;;;;5.55;68.44;97136.72;5043456;28;20053;-80
2022/02/09 18:30:55;;;;;;;22.35;8.18;;;;;;;5.45;69.66;97138.28;5024027;28;20056;-80
2022/02/09 18:33:51;;;;;;;23.08;8.25;;;;;;;5.34;70.45;97143.94;5025387;28;21542;-81
2022/02/09 18:44:42;;;;;;;32.45;12.98;;;;;;;5.26;71.16;97139.84;5029322;28;20464;-79
2022/02/09 18:47:38;;;;;;;21.77;12.18;;;;;;;5.24;71.83;97137.41;5066337;28;20057;-80
2022/02/09 19:03:58;;;;;;;22.45;11.15;;;;;;;4.91;72.72;97143.22;5067072;28;20099;-78
2022/02/09 19:06:36;;;;;;;24.55;11.85;;;;;;;4.85;72.84;97136.97;5066127;28;20131;-80
2022/02/09 19:14:29;;;;;;;19.75;10.75;;;;;;;4.68;73.63;97133.63;5014069;28;20516;-80
2022/02/09 19:16:59;;;;;;;27.38;18.98;;;;;;;4.63;74.29;97126.31;5027421;28;20053;-80
2022/02/09 19:19:54;;;;;;;21.42;10.95;;;;;;;4.64;74.01;97125.25;5026061;28;20107;-80
2022/02/09 19:30:44;;;;;;;19.45;11.32;;;;;;;4.64;72.24;97122.53;5030652;28;20057;-76
2022/02/09 19:33:31;;;;;;;23.25;10.45;;;;;;;4.58;72.64;97118.19;5028773;28;20077;-76
2022/02/09 19:47:04;;;;;;;18.80;9.48;;;;;;;4.42;73.07;97119.16;5049967;28;20099;-74
2022/02/09 19:52:19;;;;;;;18.77;8.70;;;;;;;4.31;73.28;97112.91;5040902;28;20526;-78
2022/02/09 19:55:02;;;;;;;16.52;9.82;;;;;;;4.32;73.41;97114.53;5049559;28;20055;-78
2022/02/09 19:57:33;;;;;;;20.77;9.60;;;;;;;4.27;73.41;97110.97;5050135;28;20049;-79
2022/02/09 20:00:00;;;;;;;19.23;9.20;;;;;;;4.22;73.63;97113.63;5049660;28;20480;-79
2022/02/09 20:02:26;;;;;;;17.75;8.63;;;;;;;4.16;73.70;97110.91;5049722;28;20045;-78
2022/02/09 20:04:55;;;;;;;19.35;8.75;;;;;;;4.18;73.60;97116.06;5049949;28;20045;-79
2022/02/09 20:07:23;;;;;;;17.00;9.32;;;;;;;4.13;73.75;97107.94;5048879;28;20123;-79
2022/02/09 20:09:50;;;;;;;20.92;9.75;;;;;;;4.09;74.06;97104.13;5049883;28;20053;-78
2022/02/09 20:12:17;;;;;;;13.95;7.90;;;;;;;4.03;74.32;97110.53;5053045;28;20048;-79
2022/02/09 20:14:46;;;;;;;12.40;7.40;;;;;;;4.00;74.31;97095.69;5070322;28;20056;-79
2022/02/09 20:17:13;;;;;;;14.23;8.75;;;;;;;3.97;74.57;97100.78;5068994;28;20052;-79
2022/02/09 20:19:42;;;;;;;15.35;8.02;;;;;;;3.98;74.33;97100.53;5069806;28;20048;-78
2022/02/09 20:22:09;;;;;;;11.80;6.40;;;;;;;3.91;74.55;97103.44;5069329;28;20139;-78
2022/02/09 20:24:36;;;;;;;9.75;6.32;;;;;;;3.87;74.49;97099.63;5069720;28;20056;-79
2022/02/09 20:27:05;;;;;;;13.38;6.10;;;;;;;3.85;74.86;97104.44;5049613;28;20599;-78
2022/02/09 20:29:34;;;;;;;25.95;6.45;;;;;;;3.81;74.87;97097.97;5049011;28;20080;-77
2022/02/09 20:32:12;;;;;;;10.13;5.05;;;;;;;3.78;74.89;97101.16;5049813;28;20053;-77
2022/02/09 20:34:47;;;;;;;12.90;5.82;;;;;;;3.75;74.97;97092.78;5048176;28;20148;-76
2022/02/09 20:37:15;;;;;;;10.85;6.03;;;;;;;3.72;75.21;97107.59;5048303;28;20076;-77
2022/02/09 20:39:54;;;;;;;11.05;5.63;;;;;;;3.73;75.17;97105.69;5047977;28;20179;-75
2022/02/09 20:42:22;;;;;;;10.68;5.55;;;;;;;3.70;75.07;97112.41;5052769;28;20121;-77
2022/02/09 20:44:54;;;;;;;8.90;5.53;;;;;;;3.67;75.37;97118.31;5068146;28;20578;-76
2022/02/09 20:47:20;;;;;;;12.40;5.50;;;;;;;3.62;75.48;97112.88;5067204;28;20052;-78
2022/02/09 20:49:47;;;;;;;10.80;6.18;;;;;;;3.64;75.61;97102.66;5068552;28;20507;-74
2022/02/09 20:52:15;;;;;;;10.23;5.45;;;;;;;3.59;75.78;97110.69;5066775;28;20052;-76
2022/02/09 20:54:43;;;;;;;10.25;6.03;;;;;;;3.52;76.74;97110.09;5058159;28;20135;-77